sensor_id;sensor_type;location;lat;lon;timestamp;pressure;altitude;pressure_sealevel;temperature;humidity
9281;BME280;4679;47.966;7.958;2022-07-23T06:17:07;97241.53;;;22.70;66.83
9281;BME280;4679;47.966;7.958;2022-07-23T06:19:10;97245.34;;;22.77;66.68
9281;BME280;4679;47.966;7.958;2022-07-23T06:21:11;97241.69;;;22.82;66.59
9281;BME280;4679;47.966;7.958;2022-07-23T06:23:13;97240.56;;;22.92;66.45
9281;BME280;4679;47.966;7.958;2022-07-23T06:25:15;97241.22;;;22.97;66.32
9281;BME280;4679;47.966;7.958;2022-07-23T06:27:18;97243.28;;;23.00;65.99
9281;BME280;4679;47.966;7.958;2022-07-23T06:31:22;97241.19;;;23.14;65.62
9281;BME280;4679;47.966;7.958;2022-07-23T06:33:25;97247.25;;;23.20;65.67
9281;BME280;4679;47.966;7.958;2022-07-23T06:35:27;97247.19;;;23.29;65.38
9281;BME280;4679;47.966;7.958;2022-07-23T06:37:29;97245.25;;;23.38;65.39
9281;BME280;4679;47.966;7.958;2022-07-23T06:39:31;97244.78;;;23.44;65.34
9281;BME280;4679;47.966;7.958;2022-07-23T06:41:32;97253.06;;;23.48;65.29
9281;BME280;4679;47.966;7.958;2022-07-23T06:43:34;97255.75;;;23.48;65.34
9281;BME280;4679;47.966;7.958;2022-07-23T06:45:36;97256.75;;;23.52;65.04
9281;BME280;4679;47.966;7.958;2022-07-23T06:47:38;97248.91;;;23.59;64.93
9281;BME280;4679;47.966;7.958;2022-07-23T06:49:42;97252.88;;;23.53;65.32
9281;BME280;4679;47.966;7.958;2022-07-23T06:51:44;97248.09;;;23.59;65.03
9281;BME280;4679;47.966;7.958;2022-07-23T06:53:46;97249.38;;;23.61;65.12
9281;BME280;4679;47.966;7.958;2022-07-23T06:55:48;97248.41;;;23.57;65.34
9281;BME280;4679;47.966;7.958;2022-07-23T06:57:49;97250.34;;;23.57;65.28
9281;BME280;4679;47.966;7.958;2022-07-23T06:59:51;97253.50;;;23.67;65.13
9281;BME280;4679;47.966;7.958;2022-07-23T07:01:53;97260.00;;;23.75;64.88
9281;BME280;4679;47.966;7.958;2022-07-23T07:03:55;97267.16;;;23.79;64.65
9281;BME280;4679;47.966;7.958;2022-07-23T07:05:58;97268.91;;;23.75;64.56
9281;BME280;4679;47.966;7.958;2022-07-23T07:08:00;97262.06;;;23.78;64.63
9281;BME280;4679;47.966;7.958;2022-07-23T07:10:02;97264.59;;;23.83;64.22
9281;BME280;4679;47.966;7.958;2022-07-23T07:12:04;97266.78;;;23.90;64.03
9281;BME280;4679;47.966;7.958;2022-07-23T07:14:06;97267.34;;;24.04;63.78
9281;BME280;4679;47.966;7.958;2022-07-23T07:16:08;97269.41;;;24.07;63.61
9281;BME280;4679;47.966;7.958;2022-07-23T07:18:10;97274.91;;;23.90;63.98
9281;BME280;4679;47.966;7.958;2022-07-23T07:20:12;97268.75;;;23.80;64.07
9281;BME280;4679;47.966;7.958;2022-07-23T07:22:15;97271.47;;;23.80;63.94
9281;BME280;4679;47.966;7.958;2022-07-23T07:24:16;97279.28;;;23.73;64.10
9281;BME280;4679;47.966;7.958;2022-07-23T07:26:18;97280.13;;;23.65;64.17
9281;BME280;4679;47.966;7.958;2022-07-23T07:28:20;97283.31;;;23.67;64.07
9281;BME280;4679;47.966;7.958;2022-07-23T07:30:21;97297.44;;;23.81;63.84
9281;BME280;4679;47.966;7.958;2022-07-23T07:32:23;97290.81;;;24.00;63.32
9281;BME280;4679;47.966;7.958;2022-07-23T07:34:25;97298.38;;;24.15;62.96
9281;BME280;4679;47.966;7.958;2022-07-23T07:36:27;97302.00;;;23.98;63.42
9281;BME280;4679;47.966;7.958;2022-07-23T07:38:30;97303.63;;;23.91;63.47
9281;BME280;4679;47.966;7.958;2022-07-23T07:40:32;97309.25;;;23.77;63.86
9281;BME280;4679;47.966;7.958;2022-07-23T07:42:33;97308.66;;;23.63;64.08
9281;BME280;4679;47.966;7.958;2022-07-23T07:44:36;97306.44;;;23.65;64.23
9281;BME280;4679;47.966;7.958;2022-07-23T07:46:37;97311.44;;;23.83;63.62
9281;BME280;4679;47.966;7.958;2022-07-23T07:48:39;97303.22;;;24.09;63.36
9281;BME280;4679;47.966;7.958;2022-07-23T07:50:41;97306.41;;;24.11;63.19
9281;BME280;4679;47.966;7.958;2022-07-23T07:52:43;97304.75;;;24.19;63.17
9281;BME280;4679;47.966;7.958;2022-07-23T07:54:46;97310.97;;;24.19;63.15
9281;BME280;4679;47.966;7.958;2022-07-23T07:56:47;97310.47;;;23.97;63.59
9281;BME280;4679;47.966;7.958;2022-07-23T07:58:49;97311.31;;;23.80;64.04
9281;BME280;4679;47.966;7.958;2022-07-23T08:00:51;97308.88;;;23.96;63.61
9281;BME280;4679;47.966;7.958;2022-07-23T08:02:55;97305.72;;;24.14;63.47
9281;BME280;4679;47.966;7.958;2022-07-23T08:04:56;97317.78;;;24.34;63.16
9281;BME280;4679;47.966;7.958;2022-07-23T08:06:58;97317.06;;;24.25;63.17
9281;BME280;4679;47.966;7.958;2022-07-23T08:09:00;97323.59;;;24.24;63.68
9281;BME280;4679;47.966;7.958;2022-07-23T08:11:03;97322.91;;;24.36;63.26
9281;BME280;4679;47.966;7.958;2022-07-23T08:13:05;97322.09;;;24.35;63.22
9281;BME280;4679;47.966;7.958;2022-07-23T08:15:08;97317.63;;;24.39;63.19
9281;BME280;4679;47.966;7.958;2022-07-23T08:17:10;97325.38;;;24.49;63.05
9281;BME280;4679;47.966;7.958;2022-07-23T08:19:12;97323.03;;;24.39;63.31
9281;BME280;4679;47.966;7.958;2022-07-23T08:21:13;97317.97;;;24.29;63.31
9281;BME280;4679;47.966;7.958;2022-07-23T08:23:15;97310.31;;;24.31;63.36
9281;BME280;4679;47.966;7.958;2022-07-23T08:25:21;97318.81;;;24.50;62.73
9281;BME280;4679;47.966;7.958;2022-07-23T08:27:24;97318.03;;;24.50;62.63
9281;BME280;4679;47.966;7.958;2022-07-23T08:29:26;97323.31;;;24.46;62.97
9281;BME280;4679;47.966;7.958;2022-07-23T08:31:28;97330.53;;;24.42;63.00
9281;BME280;4679;47.966;7.958;2022-07-23T08:33:29;97328.25;;;24.44;62.80
9281;BME280;4679;47.966;7.958;2022-07-23T08:35:32;97334.44;;;24.53;62.69
9281;BME280;4679;47.966;7.958;2022-07-23T08:37:34;97322.31;;;24.51;62.61
9281;BME280;4679;47.966;7.958;2022-07-23T08:39:36;97318.63;;;24.56;62.42
9281;BME280;4679;47.966;7.958;2022-07-23T08:41:39;97318.09;;;24.62;62.57
9281;BME280;4679;47.966;7.958;2022-07-23T08:43:44;97328.38;;;24.57;62.42
9281;BME280;4679;47.966;7.958;2022-07-23T08:45:47;97331.44;;;24.46;62.47
9281;BME280;4679;47.966;7.958;2022-07-23T08:47:50;97335.91;;;24.51;62.34
9281;BME280;4679;47.966;7.958;2022-07-23T08:49:52;97330.06;;;24.61;62.08
9281;BME280;4679;47.966;7.958;2022-07-23T08:51:55;97328.16;;;24.62;61.50
9281;BME280;4679;47.966;7.958;2022-07-23T08:53:57;97319.66;;;24.72;61.69
9281;BME280;4679;47.966;7.958;2022-07-23T08:56:00;97319.53;;;24.89;61.07
9281;BME280;4679;47.966;7.958;2022-07-23T08:58:03;97312.84;;;25.07;60.71
9281;BME280;4679;47.966;7.958;2022-07-23T09:00:07;97325.88;;;25.14;60.18
9281;BME280;4679;47.966;7.958;2022-07-23T09:02:09;97323.50;;;25.33;59.95
9281;BME280;4679;47.966;7.958;2022-07-23T09:04:11;97320.50;;;25.59;59.49
9281;BME280;4679;47.966;7.958;2022-07-23T09:06:12;97320.56;;;25.83;58.71
9281;BME280;4679;47.966;7.958;2022-07-23T09:08:15;97326.34;;;25.82;58.59
9281;BME280;4679;47.966;7.958;2022-07-23T09:10:18;97321.63;;;25.91;58.61
9281;BME280;4679;47.966;7.958;2022-07-23T09:12:20;97319.69;;;25.91;58.52
9281;BME280;4679;47.966;7.958;2022-07-23T09:14:35;97326.16;;;25.99;57.84
9281;BME280;4679;47.966;7.958;2022-07-23T09:16:39;97322.09;;;25.93;58.33
9281;BME280;4679;47.966;7.958;2022-07-23T09:18:43;97316.50;;;25.89;57.62
9281;BME280;4679;47.966;7.958;2022-07-23T09:20:45;97318.66;;;25.84;57.89
9281;BME280;4679;47.966;7.958;2022-07-23T09:22:47;97319.88;;;25.74;57.81
9281;BME280;4679;47.966;7.958;2022-07-23T09:25:10;97327.78;;;25.67;57.76
9281;BME280;4679;47.966;7.958;2022-07-23T09:27:14;97323.38;;;25.63;57.18
9281;BME280;4679;47.966;7.958;2022-07-23T09:29:17;97315.59;;;25.73;56.91
9281;BME280;4679;47.966;7.958;2022-07-23T09:31:19;97322.94;;;25.73;56.92
9281;BME280;4679;47.966;7.958;2022-07-23T09:33:22;97324.88;;;25.84;56.40
9281;BME280;4679;47.966;7.958;2022-07-23T09:35:43;97325.81;;;26.01;56.21
9281;BME280;4679;47.966;7.958;2022-07-23T09:38:00;97325.94;;;26.16;55.78
9281;BME280;4679;47.966;7.958;2022-07-23T09:40:04;97324.34;;;26.15;55.34
9281;BME280;4679;47.966;7.958;2022-07-23T09:42:13;97325.59;;;26.06;54.93
9281;BME280;4679;47.966;7.958;2022-07-23T09:44:17;97330.13;;;26.14;55.30
9281;BME280;4679;47.966;7.958;2022-07-23T09:46:21;97316.09;;;26.24;54.63
9281;BME280;4679;47.966;7.958;2022-07-23T09:48:25;97325.59;;;26.18;54.55
9281;BME280;4679;47.966;7.958;2022-07-23T09:50:27;97334.34;;;26.23;54.56
9281;BME280;4679;47.966;7.958;2022-07-23T09:52:29;97330.75;;;26.32;54.75
9281;BME280;4679;47.966;7.958;2022-07-23T09:54:33;97325.88;;;26.37;54.56
9281;BME280;4679;47.966;7.958;2022-07-23T09:56:36;97322.41;;;26.28;54.33
9281;BME280;4679;47.966;7.958;2022-07-23T09:58:39;97326.00;;;26.41;53.76
9281;BME280;4679;47.966;7.958;2022-07-23T10:00:45;97329.16;;;26.43;54.07
9281;BME280;4679;47.966;7.958;2022-07-23T10:02:50;97331.19;;;26.46;53.77
9281;BME280;4679;47.966;7.958;2022-07-23T10:04:54;97324.47;;;26.68;53.39
9281;BME280;4679;47.966;7.958;2022-07-23T10:06:57;97326.06;;;26.69;53.84
9281;BME280;4679;47.966;7.958;2022-07-23T10:08:59;97338.28;;;26.75;53.50
9281;BME280;4679;47.966;7.958;2022-07-23T10:11:03;97337.50;;;26.74;53.36
9281;BME280;4679;47.966;7.958;2022-07-23T10:13:05;97329.16;;;27.07;53.05
9281;BME280;4679;47.966;7.958;2022-07-23T10:15:21;97343.75;;;27.55;51.77
9281;BME280;4679;47.966;7.958;2022-07-23T10:17:23;97343.00;;;27.70;51.57
9281;BME280;4679;47.966;7.958;2022-07-23T10:19:24;97354.25;;;27.69;52.27
9281;BME280;4679;47.966;7.958;2022-07-23T10:21:36;97354.25;;;27.69;52.00
9281;BME280;4679;47.966;7.958;2022-07-23T10:23:42;97351.81;;;27.51;52.43
9281;BME280;4679;47.966;7.958;2022-07-23T10:25:54;97349.09;;;27.51;52.26
9281;BME280;4679;47.966;7.958;2022-07-23T10:28:08;97350.84;;;27.44;52.42
9281;BME280;4679;47.966;7.958;2022-07-23T10:30:19;97359.25;;;27.11;53.07
9281;BME280;4679;47.966;7.958;2022-07-23T10:32:30;97354.19;;;26.97;52.70
9281;BME280;4679;47.966;7.958;2022-07-23T10:34:41;97349.81;;;27.08;52.36
9281;BME280;4679;47.966;7.958;2022-07-23T10:36:52;97347.22;;;27.12;52.23
9281;BME280;4679;47.966;7.958;2022-07-23T10:38:58;97343.41;;;27.28;52.19
9281;BME280;4679;47.966;7.958;2022-07-23T10:41:05;97345.97;;;27.37;51.47
9281;BME280;4679;47.966;7.958;2022-07-23T10:43:14;97347.38;;;27.31;51.83
9281;BME280;4679;47.966;7.958;2022-07-23T10:45:31;97353.06;;;27.54;51.81
9281;BME280;4679;47.966;7.958;2022-07-23T10:47:33;97357.72;;;27.53;51.82
9281;BME280;4679;47.966;7.958;2022-07-23T10:49:41;97355.03;;;27.13;52.26
9281;BME280;4679;47.966;7.958;2022-07-23T10:52:16;97356.47;;;27.23;51.57
9281;BME280;4679;47.966;7.958;2022-07-23T10:54:21;97348.25;;;27.35;51.49
9281;BME280;4679;47.966;7.958;2022-07-23T10:57:04;97350.78;;;27.28;51.68
9281;BME280;4679;47.966;7.958;2022-07-23T10:59:08;97340.78;;;27.32;51.66
9281;BME280;4679;47.966;7.958;2022-07-23T11:01:32;97352.44;;;27.45;51.44
9281;BME280;4679;47.966;7.958;2022-07-23T11:03:35;97358.84;;;27.52;50.87
9281;BME280;4679;47.966;7.958;2022-07-23T11:05:42;97357.81;;;27.29;51.22
9281;BME280;4679;47.966;7.958;2022-07-23T11:10:36;97355.41;;;27.67;50.90
9281;BME280;4679;47.966;7.958;2022-07-23T11:12:38;97368.50;;;27.62;50.66
9281;BME280;4679;47.966;7.958;2022-07-23T11:14:59;97355.94;;;27.45;51.01
9281;BME280;4679;47.966;7.958;2022-07-23T11:17:01;97363.22;;;27.41;50.69
9281;BME280;4679;47.966;7.958;2022-07-23T11:19:07;97356.56;;;27.54;50.83
9281;BME280;4679;47.966;7.958;2022-07-23T11:24:00;97358.88;;;27.80;50.47
9281;BME280;4679;47.966;7.958;2022-07-23T11:26:05;97356.84;;;27.77;50.44
9281;BME280;4679;47.966;7.958;2022-07-23T11:28:13;97364.53;;;28.03;49.94
9281;BME280;4679;47.966;7.958;2022-07-23T11:30:40;97354.03;;;27.89;50.26
9281;BME280;4679;47.966;7.958;2022-07-23T11:32:42;97353.34;;;27.92;50.46
9281;BME280;4679;47.966;7.958;2022-07-23T11:34:46;97353.44;;;28.12;50.04
9281;BME280;4679;47.966;7.958;2022-07-23T11:36:50;97353.53;;;28.31;49.26
9281;BME280;4679;47.966;7.958;2022-07-23T11:38:53;97361.47;;;28.20;49.38
9281;BME280;4679;47.966;7.958;2022-07-23T11:40:55;97359.66;;;27.96;49.86
9281;BME280;4679;47.966;7.958;2022-07-23T11:43:01;97362.03;;;28.26;49.40
9281;BME280;4679;47.966;7.958;2022-07-23T11:45:05;97362.25;;;28.52;48.80
9281;BME280;4679;47.966;7.958;2022-07-23T11:47:09;97355.63;;;28.69;48.76
9281;BME280;4679;47.966;7.958;2022-07-23T11:49:12;97359.59;;;28.87;48.47
9281;BME280;4679;47.966;7.958;2022-07-23T11:51:25;97356.94;;;29.10;47.87
9281;BME280;4679;47.966;7.958;2022-07-23T11:53:28;97354.78;;;29.19;47.62
9281;BME280;4679;47.966;7.958;2022-07-23T11:55:30;97355.53;;;29.16;47.74
9281;BME280;4679;47.966;7.958;2022-07-23T11:57:34;97354.28;;;29.14;47.68
9281;BME280;4679;47.966;7.958;2022-07-23T11:59:38;97351.06;;;29.27;47.47
9281;BME280;4679;47.966;7.958;2022-07-23T12:01:55;97343.53;;;29.40;47.38
9281;BME280;4679;47.966;7.958;2022-07-23T12:03:57;97341.13;;;29.38;47.42
9281;BME280;4679;47.966;7.958;2022-07-23T12:06:00;97341.22;;;29.42;47.29
9281;BME280;4679;47.966;7.958;2022-07-23T12:08:03;97349.97;;;29.32;47.29
9281;BME280;4679;47.966;7.958;2022-07-23T12:10:10;97344.63;;;29.20;47.37
9281;BME280;4679;47.966;7.958;2022-07-23T12:12:12;97341.25;;;29.26;47.60
9281;BME280;4679;47.966;7.958;2022-07-23T12:14:14;97348.44;;;29.34;46.74
9281;BME280;4679;47.966;7.958;2022-07-23T12:16:17;97346.16;;;29.36;47.11
9281;BME280;4679;47.966;7.958;2022-07-23T12:18:21;97346.44;;;29.51;46.80
9281;BME280;4679;47.966;7.958;2022-07-23T12:20:25;97340.06;;;29.62;46.54
9281;BME280;4679;47.966;7.958;2022-07-23T12:22:35;97343.72;;;29.31;46.93
9281;BME280;4679;47.966;7.958;2022-07-23T12:24:54;97333.56;;;29.13;47.08
9281;BME280;4679;47.966;7.958;2022-07-23T12:27:08;97328.25;;;29.39;46.86
9281;BME280;4679;47.966;7.958;2022-07-23T12:29:10;97329.31;;;29.54;46.57
9281;BME280;4679;47.966;7.958;2022-07-23T12:31:12;97331.16;;;29.46;46.44
9281;BME280;4679;47.966;7.958;2022-07-23T12:33:21;97333.84;;;29.65;46.21
9281;BME280;4679;47.966;7.958;2022-07-23T12:35:30;97334.78;;;29.96;45.36
9281;BME280;4679;47.966;7.958;2022-07-23T12:37:34;97327.97;;;30.32;45.14
9281;BME280;4679;47.966;7.958;2022-07-23T12:39:36;97325.69;;;30.60;44.86
9281;BME280;4679;47.966;7.958;2022-07-23T12:41:50;97329.72;;;30.66;44.47
9281;BME280;4679;47.966;7.958;2022-07-23T12:43:52;97320.84;;;30.76;44.18
9281;BME280;4679;47.966;7.958;2022-07-23T12:45:56;97325.47;;;30.72;43.87
9281;BME280;4679;47.966;7.958;2022-07-23T12:48:01;97322.72;;;30.72;44.20
9281;BME280;4679;47.966;7.958;2022-07-23T12:50:06;97315.72;;;30.49;44.00
9281;BME280;4679;47.966;7.958;2022-07-23T12:52:15;97325.25;;;30.32;43.96
9281;BME280;4679;47.966;7.958;2022-07-23T12:54:17;97326.78;;;30.06;44.55
9281;BME280;4679;47.966;7.958;2022-07-23T12:56:26;97321.84;;;30.16;43.98
9281;BME280;4679;47.966;7.958;2022-07-23T12:58:39;97316.16;;;30.28;43.86
9281;BME280;4679;47.966;7.958;2022-07-23T13:00:56;97330.31;;;30.56;43.51
9281;BME280;4679;47.966;7.958;2022-07-23T13:02:58;97333.06;;;30.56;43.53
9281;BME280;4679;47.966;7.958;2022-07-23T13:05:00;97332.78;;;30.38;42.91
9281;BME280;4679;47.966;7.958;2022-07-23T13:07:03;97326.28;;;30.24;43.17
9281;BME280;4679;47.966;7.958;2022-07-23T13:09:07;97328.69;;;30.29;43.65
9281;BME280;4679;47.966;7.958;2022-07-23T13:11:10;97313.09;;;30.82;42.73
9281;BME280;4679;47.966;7.958;2022-07-23T13:13:11;97316.38;;;30.95;42.13
9281;BME280;4679;47.966;7.958;2022-07-23T13:15:13;97310.81;;;30.88;42.50
9281;BME280;4679;47.966;7.958;2022-07-23T13:17:15;97305.56;;;30.75;42.07
9281;BME280;4679;47.966;7.958;2022-07-23T13:19:17;97310.28;;;31.08;42.39
9281;BME280;4679;47.966;7.958;2022-07-23T13:21:19;97313.66;;;31.58;40.92
9281;BME280;4679;47.966;7.958;2022-07-23T13:23:22;97316.25;;;31.81;40.41
9281;BME280;4679;47.966;7.958;2022-07-23T13:25:24;97316.63;;;31.79;40.36
9281;BME280;4679;47.966;7.958;2022-07-23T13:27:26;97316.81;;;31.64;40.61
9281;BME280;4679;47.966;7.958;2022-07-23T13:29:28;97323.41;;;31.89;40.54
9281;BME280;4679;47.966;7.958;2022-07-23T13:31:29;97311.78;;;32.06;39.93
9281;BME280;4679;47.966;7.958;2022-07-23T13:33:31;97305.13;;;32.07;39.83
9281;BME280;4679;47.966;7.958;2022-07-23T13:35:34;97312.84;;;31.95;40.73
9281;BME280;4679;47.966;7.958;2022-07-23T13:37:36;97307.00;;;31.63;40.65
9281;BME280;4679;47.966;7.958;2022-07-23T13:39:39;97308.94;;;31.59;41.16
9281;BME280;4679;47.966;7.958;2022-07-23T13:41:41;97308.00;;;31.44;40.73
9281;BME280;4679;47.966;7.958;2022-07-23T13:43:43;97310.66;;;31.37;41.05
9281;BME280;4679;47.966;7.958;2022-07-23T13:45:45;97310.16;;;31.61;40.87
9281;BME280;4679;47.966;7.958;2022-07-23T13:47:47;97304.91;;;31.45;40.25
9281;BME280;4679;47.966;7.958;2022-07-23T13:49:48;97306.94;;;31.56;40.55
9281;BME280;4679;47.966;7.958;2022-07-23T13:51:50;97304.09;;;31.82;39.43
9281;BME280;4679;47.966;7.958;2022-07-23T13:53:52;97313.88;;;31.79;39.57
9281;BME280;4679;47.966;7.958;2022-07-23T13:55:56;97307.88;;;31.67;39.82
9281;BME280;4679;47.966;7.958;2022-07-23T13:57:58;97306.34;;;31.69;39.97
9281;BME280;4679;47.966;7.958;2022-07-23T14:00:00;97309.22;;;31.84;39.97
9281;BME280;4679;47.966;7.958;2022-07-23T14:02:03;97306.63;;;32.01;39.40
9281;BME280;4679;47.966;7.958;2022-07-23T14:04:05;97309.53;;;31.78;39.17
9281;BME280;4679;47.966;7.958;2022-07-23T14:06:07;97313.34;;;31.67;39.89
9281;BME280;4679;47.966;7.958;2022-07-23T14:08:09;97308.84;;;31.52;40.30
9281;BME280;4679;47.966;7.958;2022-07-23T14:10:11;97306.16;;;31.55;40.30
9281;BME280;4679;47.966;7.958;2022-07-23T14:12:14;97311.03;;;31.35;40.24
9281;BME280;4679;47.966;7.958;2022-07-23T14:14:16;97314.63;;;31.39;39.91
9281;BME280;4679;47.966;7.958;2022-07-23T14:16:18;97308.19;;;31.25;40.29
9281;BME280;4679;47.966;7.958;2022-07-23T14:18:20;97304.03;;;31.08;40.14
9281;BME280;4679;47.966;7.958;2022-07-23T14:20:22;97301.22;;;31.01;40.10
9281;BME280;4679;47.966;7.958;2022-07-23T14:22:24;97303.00;;;30.90;40.59
9281;BME280;4679;47.966;7.958;2022-07-23T14:24:26;97304.94;;;30.86;40.80
9281;BME280;4679;47.966;7.958;2022-07-23T14:26:28;97304.94;;;30.89;40.52
9281;BME280;4679;47.966;7.958;2022-07-23T14:28:32;97306.41;;;31.09;39.87
9281;BME280;4679;47.966;7.958;2022-07-23T14:30:34;97301.91;;;31.24;39.39
9281;BME280;4679;47.966;7.958;2022-07-23T14:32:36;97299.56;;;31.26;39.92
9281;BME280;4679;47.966;7.958;2022-07-23T14:34:38;97289.06;;;31.32;39.87
9281;BME280;4679;47.966;7.958;2022-07-23T14:36:39;97300.25;;;31.16;39.83
9281;BME280;4679;47.966;7.958;2022-07-23T14:38:42;97296.59;;;31.08;40.25
9281;BME280;4679;47.966;7.958;2022-07-23T14:40:43;97297.31;;;31.05;39.67
9281;BME280;4679;47.966;7.958;2022-07-23T14:42:45;97293.78;;;31.35;39.29
9281;BME280;4679;47.966;7.958;2022-07-23T14:44:48;97293.22;;;31.19;40.00
9281;BME280;4679;47.966;7.958;2022-07-23T14:46:50;97293.72;;;30.68;40.39
9281;BME280;4679;47.966;7.958;2022-07-23T14:48:52;97291.84;;;30.23;40.90
9281;BME280;4679;47.966;7.958;2022-07-23T14:50:54;97296.47;;;29.96;41.50
9281;BME280;4679;47.966;7.958;2022-07-23T14:52:55;97291.63;;;30.08;41.20
9281;BME280;4679;47.966;7.958;2022-07-23T14:54:57;97293.38;;;30.20;41.00
9281;BME280;4679;47.966;7.958;2022-07-23T14:57:01;97290.72;;;30.27;40.90
9281;BME280;4679;47.966;7.958;2022-07-23T14:59:03;97295.69;;;30.18;41.00
9281;BME280;4679;47.966;7.958;2022-07-23T15:01:07;97288.78;;;30.28;41.18
9281;BME280;4679;47.966;7.958;2022-07-23T15:03:08;97297.34;;;30.49;40.74
9281;BME280;4679;47.966;7.958;2022-07-23T15:05:10;97299.19;;;30.68;40.81
9281;BME280;4679;47.966;7.958;2022-07-23T15:07:12;97290.63;;;30.47;40.44
9281;BME280;4679;47.966;7.958;2022-07-23T15:09:14;97289.72;;;30.13;41.45
9281;BME280;4679;47.966;7.958;2022-07-23T15:11:15;97300.34;;;29.95;41.37
9281;BME280;4679;47.966;7.958;2022-07-23T15:13:17;97292.50;;;29.70;42.15
9281;BME280;4679;47.966;7.958;2022-07-23T15:15:19;97297.91;;;29.44;42.20
9281;BME280;4679;47.966;7.958;2022-07-23T15:17:22;97296.75;;;29.45;42.65
9281;BME280;4679;47.966;7.958;2022-07-23T15:19:25;97302.22;;;29.45;42.21
9281;BME280;4679;47.966;7.958;2022-07-23T15:21:26;97307.31;;;29.47;42.42
9281;BME280;4679;47.966;7.958;2022-07-23T15:23:29;97303.13;;;29.53;42.72
9281;BME280;4679;47.966;7.958;2022-07-23T15:25:31;97306.19;;;29.48;42.42
9281;BME280;4679;47.966;7.958;2022-07-23T15:27:33;97311.31;;;29.33;42.47
9281;BME280;4679;47.966;7.958;2022-07-23T15:29:35;97303.91;;;29.53;42.17
9281;BME280;4679;47.966;7.958;2022-07-23T15:31:37;97301.66;;;29.78;42.10
9281;BME280;4679;47.966;7.958;2022-07-23T15:33:40;97303.19;;;29.79;42.16
9281;BME280;4679;47.966;7.958;2022-07-23T15:35:42;97304.84;;;29.84;41.97
9281;BME280;4679;47.966;7.958;2022-07-23T15:37:44;97291.78;;;29.73;42.19
9281;BME280;4679;47.966;7.958;2022-07-23T15:39:45;97298.63;;;29.41;42.53
9281;BME280;4679;47.966;7.958;2022-07-23T15:41:47;97297.53;;;29.26;42.90
9281;BME280;4679;47.966;7.958;2022-07-23T15:43:49;97297.97;;;29.28;42.64
9281;BME280;4679;47.966;7.958;2022-07-23T15:45:51;97302.34;;;29.33;42.61
9281;BME280;4679;47.966;7.958;2022-07-23T15:47:54;97300.03;;;29.54;42.57
9281;BME280;4679;47.966;7.958;2022-07-23T15:49:57;97299.84;;;29.66;42.31
9281;BME280;4679;47.966;7.958;2022-07-23T15:51:59;97298.09;;;29.55;42.52
9281;BME280;4679;47.966;7.958;2022-07-23T15:54:01;97297.16;;;29.28;42.80
9281;BME280;4679;47.966;7.958;2022-07-23T15:56:04;97295.06;;;29.21;42.93
9281;BME280;4679;47.966;7.958;2022-07-23T15:58:07;97299.81;;;29.24;42.92
9281;BME280;4679;47.966;7.958;2022-07-23T16:00:09;97301.25;;;29.18;42.87
9281;BME280;4679;47.966;7.958;2022-07-23T16:02:11;97297.31;;;29.16;43.10
9281;BME280;4679;47.966;7.958;2022-07-23T16:04:13;97286.06;;;29.21;42.86
9281;BME280;4679;47.966;7.958;2022-07-23T16:06:16;97282.28;;;29.25;42.90
9281;BME280;4679;47.966;7.958;2022-07-23T16:08:18;97289.75;;;29.28;42.91
9281;BME280;4679;47.966;7.958;2022-07-23T16:10:20;97288.88;;;29.24;43.30
9281;BME280;4679;47.966;7.958;2022-07-23T16:12:22;97293.56;;;29.24;43.22
9281;BME280;4679;47.966;7.958;2022-07-23T16:14:24;97298.66;;;29.25;43.22
9281;BME280;4679;47.966;7.958;2022-07-23T16:16:26;97288.16;;;29.27;42.96
9281;BME280;4679;47.966;7.958;2022-07-23T16:18:28;97297.53;;;29.26;43.04
9281;BME280;4679;47.966;7.958;2022-07-23T16:20:30;97292.34;;;29.21;43.12
9281;BME280;4679;47.966;7.958;2022-07-23T16:22:34;97295.50;;;29.23;43.01
9281;BME280;4679;47.966;7.958;2022-07-23T16:24:36;97292.34;;;29.21;42.69
9281;BME280;4679;47.966;7.958;2022-07-23T16:26:38;97291.41;;;29.14;43.05
9281;BME280;4679;47.966;7.958;2022-07-23T16:28:40;97285.53;;;29.12;42.79
9281;BME280;4679;47.966;7.958;2022-07-23T16:30:42;97293.63;;;29.08;43.15
9281;BME280;4679;47.966;7.958;2022-07-23T16:32:44;97299.69;;;28.98;43.02
9281;BME280;4679;47.966;7.958;2022-07-23T16:34:46;97291.84;;;28.96;42.99
9281;BME280;4679;47.966;7.958;2022-07-23T16:36:48;97296.25;;;29.01;42.84
9281;BME280;4679;47.966;7.958;2022-07-23T16:38:51;97286.81;;;28.98;42.92
9281;BME280;4679;47.966;7.958;2022-07-23T16:40:53;97289.97;;;29.00;42.73
9281;BME280;4679;47.966;7.958;2022-07-23T16:42:56;97289.84;;;29.13;42.58
9281;BME280;4679;47.966;7.958;2022-07-23T16:44:58;97286.22;;;29.09;42.58
9281;BME280;4679;47.966;7.958;2022-07-23T16:47:00;97298.97;;;29.01;42.98
9281;BME280;4679;47.966;7.958;2022-07-23T16:49:02;97288.88;;;29.05;42.46
9281;BME280;4679;47.966;7.958;2022-07-23T16:51:04;97305.28;;;29.05;42.49
9281;BME280;4679;47.966;7.958;2022-07-23T16:53:06;97295.09;;;29.02;42.33
9281;BME280;4679;47.966;7.958;2022-07-23T16:55:09;97297.31;;;28.96;42.27
9281;BME280;4679;47.966;7.958;2022-07-23T16:57:11;97291.06;;;28.96;42.30
9281;BME280;4679;47.966;7.958;2022-07-23T16:59:13;97285.34;;;29.04;42.26
9281;BME280;4679;47.966;7.958;2022-07-23T17:01:16;97294.31;;;29.01;42.23
9281;BME280;4679;47.966;7.958;2022-07-23T17:03:17;97292.00;;;28.84;42.40
9281;BME280;4679;47.966;7.958;2022-07-23T17:05:20;97290.50;;;28.71;42.57
9281;BME280;4679;47.966;7.958;2022-07-23T17:07:22;97295.66;;;28.76;42.41
9281;BME280;4679;47.966;7.958;2022-07-23T17:09:23;97300.09;;;28.81;42.52
9281;BME280;4679;47.966;7.958;2022-07-23T17:11:27;97296.22;;;28.82;42.39
9281;BME280;4679;47.966;7.958;2022-07-23T17:13:28;97297.50;;;28.88;42.09
9281;BME280;4679;47.966;7.958;2022-07-23T17:15:30;97292.69;;;28.81;42.70
9281;BME280;4679;47.966;7.958;2022-07-23T17:17:32;97296.81;;;28.75;42.42
9281;BME280;4679;47.966;7.958;2022-07-23T17:19:34;97294.13;;;28.59;42.51
9281;BME280;4679;47.966;7.958;2022-07-23T17:21:36;97287.91;;;28.43;42.70
9281;BME280;4679;47.966;7.958;2022-07-23T17:23:38;97292.09;;;28.37;42.77
9281;BME280;4679;47.966;7.958;2022-07-23T17:25:41;97286.97;;;28.35;43.12
9281;BME280;4679;47.966;7.958;2022-07-23T17:27:44;97289.00;;;28.39;42.94
9281;BME280;4679;47.966;7.958;2022-07-23T17:29:46;97296.66;;;28.33;43.12
9281;BME280;4679;47.966;7.958;2022-07-23T17:31:48;97290.06;;;28.34;42.90
9281;BME280;4679;47.966;7.958;2022-07-23T17:33:50;97287.31;;;28.34;42.90
9281;BME280;4679;47.966;7.958;2022-07-23T17:35:52;97293.50;;;28.31;43.39
9281;BME280;4679;47.966;7.958;2022-07-23T17:37:55;97292.34;;;28.16;43.46